createdAt,value
2023-11-30T00:03:49.287Z,22.70
2023-11-30T00:09:53.059Z,21.70
2023-11-30T00:12:54.933Z,26.30
2023-11-30T00:15:56.826Z,26.50
2023-11-30T00:18:58.711Z,25.20
2023-11-30T00:22:00.692Z,24.00
2023-11-30T00:28:04.756Z,17.40
2023-11-30T00:34:08.565Z,18.90
2023-11-30T00:37:11.806Z,22.30
2023-11-30T00:40:13.828Z,21.70
2023-11-30T00:43:15.830Z,23.40
2023-11-30T00:46:17.850Z,22.80
2023-11-30T00:52:21.728Z,21.90
2023-11-30T00:55:23.642Z,19.50
2023-11-30T00:58:25.640Z,22.90
2023-11-30T01:01:27.574Z,22.70
2023-11-30T01:04:29.577Z,23.80
2023-11-30T01:07:31.432Z,21.60
2023-11-30T01:10:33.468Z,24.30
2023-11-30T01:13:35.603Z,24.10
2023-11-30T01:16:37.498Z,22.40
2023-11-30T01:19:39.347Z,21.70
2023-11-30T01:22:41.162Z,23.00
2023-11-30T01:25:42.851Z,23.80
2023-11-30T01:28:44.650Z,22.90
2023-11-30T01:31:46.454Z,23.40
2023-11-30T01:34:48.510Z,21.80
2023-11-30T01:37:50.262Z,21.80
2023-11-30T01:40:51.972Z,21.10
2023-11-30T01:43:53.685Z,22.90
2023-11-30T01:46:55.508Z,22.70
2023-11-30T01:49:57.552Z,22.30
2023-11-30T01:52:59.306Z,19.70
2023-11-30T01:56:01.142Z,20.80
2023-11-30T01:59:03.372Z,21.30
2023-11-30T02:02:05.377Z,22.90
2023-11-30T02:05:07.415Z,24.50
2023-11-30T02:08:09.184Z,23.20
2023-11-30T02:11:11.124Z,23.20
2023-11-30T02:14:12.874Z,23.50
2023-11-30T02:17:14.578Z,22.60
2023-11-30T02:20:17.005Z,26.30
2023-11-30T02:23:18.705Z,25.50
2023-11-30T02:26:20.495Z,25.50
2023-11-30T02:29:22.224Z,26.10
2023-11-30T02:32:24.139Z,25.10
2023-11-30T02:35:25.856Z,22.70
2023-11-30T02:38:27.538Z,25.10
2023-11-30T02:41:29.354Z,27.40
2023-11-30T02:44:31.050Z,25.10
2023-11-30T02:47:32.797Z,23.90
2023-11-30T02:50:34.489Z,25.80
2023-11-30T02:53:36.197Z,23.30
2023-11-30T02:56:41.423Z,26.30
2023-11-30T02:59:43.150Z,27.90
2023-11-30T03:05:47.204Z,22.70
2023-11-30T03:08:48.883Z,24.80
2023-11-30T03:11:50.558Z,26.70
2023-11-30T03:14:52.377Z,19.00
2023-11-30T03:17:54.219Z,25.70
2023-11-30T03:20:56.010Z,26.80
2023-11-30T03:23:58.097Z,26.40
2023-11-30T03:26:59.842Z,28.40
2023-11-30T03:30:02.056Z,25.90
2023-11-30T03:36:06.243Z,22.60
2023-11-30T03:42:10.840Z,26.00
2023-11-30T03:45:12.523Z,26.80
2023-11-30T03:48:14.327Z,28.50
2023-11-30T03:51:16.135Z,28.40
2023-11-30T03:54:17.956Z,27.90
2023-11-30T03:57:19.796Z,28.20
2023-11-30T04:00:21.591Z,32.30
2023-11-30T04:03:23.297Z,36.20
2023-11-30T04:06:25.330Z,36.20
2023-11-30T04:09:27.054Z,23.20
2023-11-30T04:15:31.231Z,29.20
2023-11-30T04:18:33.320Z,32.20
2023-11-30T04:21:35.153Z,33.50
2023-11-30T04:24:36.950Z,33.40
2023-11-30T04:27:39.375Z,24.90
2023-11-30T04:30:41.384Z,29.50
2023-11-30T04:36:45.337Z,25.30
2023-11-30T04:42:50.323Z,26.90
2023-11-30T04:45:52.025Z,29.90
2023-11-30T04:48:54.935Z,22.00
2023-11-30T04:51:56.642Z,30.30
2023-11-30T04:54:58.381Z,23.60
2023-11-30T04:58:00.102Z,33.20
2023-11-30T05:01:01.813Z,33.10
2023-11-30T05:04:04.221Z,34.20
2023-11-30T05:07:06.068Z,32.50
2023-11-30T05:10:07.943Z,30.30
2023-11-30T05:13:09.670Z,30.00
2023-11-30T05:16:11.501Z,28.80
2023-11-30T05:19:13.178Z,30.90
2023-11-30T05:22:14.835Z,30.10
2023-11-30T05:25:16.493Z,32.40
2023-11-30T05:28:18.165Z,27.70
2023-11-30T05:31:19.879Z,30.50
2023-11-30T05:34:21.560Z,31.10
2023-11-30T05:37:23.233Z,31.90
2023-11-30T05:40:25.297Z,28.60
2023-11-30T05:43:27.002Z,28.60
2023-11-30T05:46:28.727Z,28.90
2023-11-30T05:49:30.515Z,31.20
2023-11-30T05:52:32.251Z,29.80
2023-11-30T05:55:34.000Z,26.00
2023-11-30T05:58:36.536Z,26.60
2023-11-30T06:01:38.574Z,26.90
2023-11-30T06:04:52.609Z,26.00
2023-11-30T06:07:54.428Z,25.00
2023-11-30T06:10:56.084Z,23.50
2023-11-30T06:13:57.967Z,24.40
2023-11-30T06:16:59.670Z,24.80
2023-11-30T06:20:03.921Z,25.80
2023-11-30T06:23:07.786Z,24.80
2023-11-30T06:26:09.531Z,27.60
2023-11-30T06:29:16.339Z,25.10
2023-11-30T06:32:18.053Z,28.50
2023-11-30T06:35:20.531Z,19.70
2023-11-30T06:38:22.241Z,29.50
2023-11-30T06:41:23.992Z,20.40
2023-11-30T06:44:26.414Z,28.10
2023-11-30T06:47:28.159Z,26.00
2023-11-30T06:50:29.845Z,27.90
2023-11-30T06:53:31.530Z,31.20
2023-11-30T06:56:33.396Z,27.10
2023-11-30T06:59:35.233Z,32.90
2023-11-30T07:02:37.228Z,23.10
2023-11-30T07:05:38.906Z,31.80
2023-11-30T07:08:40.722Z,29.60
2023-11-30T07:11:43.100Z,19.70
2023-11-30T07:14:50.959Z,28.30
2023-11-30T07:17:53.605Z,24.80
2023-11-30T07:20:57.357Z,28.50
2023-11-30T07:24:00.242Z,25.40
2023-11-30T07:27:02.043Z,26.70
2023-11-30T07:30:08.321Z,24.70
2023-11-30T07:33:10.351Z,25.70
2023-11-30T07:36:14.085Z,25.10
2023-11-30T07:39:16.121Z,27.50
2023-11-30T07:42:28.862Z,27.10
2023-11-30T07:45:34.931Z,24.30
2023-11-30T07:48:37.017Z,27.50
2023-11-30T07:51:38.752Z,26.90
2023-11-30T07:54:41.209Z,24.50
2023-11-30T07:57:43.079Z,27.30
2023-11-30T08:00:44.837Z,26.10
2023-11-30T08:03:47.638Z,25.20
2023-11-30T08:06:49.824Z,24.30
2023-11-30T08:09:56.326Z,24.30
2023-11-30T08:13:05.392Z,24.80
2023-11-30T08:16:09.878Z,25.60
2023-11-30T08:19:14.566Z,25.00
2023-11-30T08:22:16.475Z,23.90
2023-11-30T08:25:18.252Z,22.40
2023-11-30T08:28:20.918Z,15.60
2023-11-30T08:31:22.713Z,25.20
2023-11-30T08:34:24.521Z,25.90
2023-11-30T08:37:26.323Z,24.20
2023-11-30T08:40:28.236Z,24.50
2023-11-30T08:43:30.452Z,21.90
2023-11-30T08:49:33.918Z,21.60
2023-11-30T08:52:36.004Z,26.20
2023-11-30T08:58:39.441Z,26.60
2023-11-30T09:01:41.281Z,26.60
2023-11-30T09:04:43.192Z,27.00
2023-11-30T09:07:45.048Z,29.00
2023-11-30T09:10:47.638Z,33.20
2023-11-30T09:13:49.444Z,31.50
2023-11-30T09:16:51.247Z,30.60
2023-11-30T09:19:53.084Z,29.40
2023-11-30T09:22:54.883Z,24.70
2023-11-30T09:25:57.181Z,22.70
2023-11-30T09:28:59.126Z,26.50
2023-11-30T09:32:01.099Z,21.50
2023-11-30T09:35:04.477Z,19.60
2023-11-30T09:38:06.194Z,21.90
2023-11-30T09:41:14.125Z,17.50
2023-11-30T09:44:16.098Z,23.70
2023-11-30T09:47:18.297Z,26.00
2023-11-30T09:53:22.163Z,31.10
2023-11-30T09:56:28.932Z,30.60
2023-11-30T09:59:31.136Z,24.20
2023-11-30T10:05:34.998Z,19.20
2023-11-30T10:08:36.766Z,22.30
2023-11-30T10:11:39.120Z,22.80
2023-11-30T10:14:40.913Z,20.90
2023-11-30T10:17:47.084Z,21.30
2023-11-30T10:20:49.903Z,23.60
2023-11-30T10:23:52.200Z,19.60
2023-11-30T10:26:59.748Z,19.50
2023-11-30T10:30:04.825Z,21.70
2023-11-30T10:33:13.667Z,20.60
2023-11-30T10:36:18.971Z,17.40
2023-11-30T10:39:24.208Z,18.30
2023-11-30T10:42:27.607Z,15.90
2023-11-30T10:45:36.466Z,18.00
2023-11-30T10:48:39.665Z,15.20
2023-11-30T10:51:42.610Z,19.80
2023-11-30T10:54:55.297Z,15.90
2023-11-30T10:57:58.565Z,17.90
2023-11-30T11:01:01.077Z,14.60
2023-11-30T11:04:07.549Z,13.90
2023-11-30T11:07:15.618Z,16.60
2023-11-30T11:10:32.173Z,15.80
2023-11-30T11:13:35.327Z,14.80
2023-11-30T11:16:44.813Z,18.20
2023-11-30T11:19:47.270Z,18.50
2023-11-30T11:23:13.826Z,20.50
2023-11-30T11:26:16.103Z,14.70
2023-11-30T11:29:24.335Z,14.10
2023-11-30T11:32:35.167Z,13.70
2023-11-30T11:35:37.197Z,16.00
2023-11-30T11:38:39.129Z,17.40
2023-11-30T11:41:41.058Z,20.10
2023-11-30T11:44:42.870Z,19.20
2023-11-30T11:47:44.997Z,20.10
2023-11-30T11:50:56.951Z,22.20
2023-11-30T11:53:59.006Z,16.40
2023-11-30T11:57:02.201Z,15.90
2023-11-30T12:00:10.574Z,15.80
2023-11-30T12:03:12.630Z,21.90
2023-11-30T12:06:14.954Z,17.10
2023-11-30T12:09:16.832Z,14.50
2023-11-30T12:12:18.649Z,13.40
2023-11-30T12:15:20.447Z,14.60
2023-11-30T12:18:22.498Z,19.40
2023-11-30T12:21:25.064Z,16.40
2023-11-30T12:24:26.887Z,14.10
2023-11-30T12:27:29.662Z,17.40
2023-11-30T12:30:31.868Z,18.20
2023-11-30T12:33:33.731Z,19.40
2023-11-30T12:36:35.652Z,14.60
2023-11-30T12:39:38.017Z,16.30
2023-11-30T12:42:42.307Z,16.40
2023-11-30T12:45:44.402Z,17.60
2023-11-30T12:48:46.568Z,14.50
2023-11-30T12:51:49.391Z,14.20
2023-11-30T12:54:52.342Z,13.80
2023-11-30T12:57:54.328Z,15.20
2023-11-30T13:00:56.226Z,16.30
2023-11-30T13:03:59.288Z,12.30
2023-11-30T13:07:01.300Z,18.50
2023-11-30T13:10:03.285Z,18.40
2023-11-30T13:13:06.148Z,16.80
2023-11-30T13:16:08.408Z,17.60
2023-11-30T13:19:10.391Z,17.20
2023-11-30T13:22:12.233Z,16.40
2023-11-30T13:25:14.699Z,14.80
2023-11-30T13:28:16.795Z,21.10
2023-11-30T13:31:18.801Z,22.70
2023-11-30T13:34:20.556Z,22.70
2023-11-30T13:37:22.616Z,21.50
2023-11-30T13:40:25.467Z,18.50
2023-11-30T13:43:27.329Z,21.70
2023-11-30T13:46:29.087Z,26.10
2023-11-30T13:49:31.173Z,30.60
2023-11-30T13:52:32.961Z,28.90
2023-11-30T13:55:34.784Z,23.00
2023-11-30T13:58:36.594Z,22.60
2023-11-30T14:01:38.752Z,25.90
2023-11-30T14:04:40.626Z,28.50
2023-11-30T14:07:43.033Z,28.20
2023-11-30T14:10:44.873Z,26.80
2023-11-30T14:13:46.602Z,31.80
2023-11-30T14:16:48.987Z,30.10
2023-11-30T14:19:51.451Z,32.40
2023-11-30T14:22:53.941Z,30.20
2023-11-30T14:25:57.175Z,35.50
2023-11-30T14:32:06.937Z,33.80
2023-11-30T14:35:10.257Z,39.20
2023-11-30T14:38:12.658Z,32.90
2023-11-30T14:41:16.796Z,31.20
2023-11-30T14:44:18.759Z,29.80
2023-11-30T14:47:25.925Z,30.80
2023-11-30T14:50:27.728Z,31.80
2023-11-30T14:53:29.937Z,32.60
2023-11-30T14:59:33.981Z,31.60
2023-11-30T15:02:35.880Z,39.00
2023-11-30T15:05:38.112Z,47.50
2023-11-30T15:11:43.715Z,61.80
2023-11-30T15:14:45.559Z,59.90
2023-11-30T15:17:49.930Z,58.50
2023-11-30T15:20:51.697Z,52.40
2023-11-30T15:23:53.516Z,36.80
2023-11-30T15:26:56.624Z,43.60
2023-11-30T15:29:59.726Z,39.70
2023-11-30T15:33:01.465Z,41.30
2023-11-30T15:36:05.530Z,47.10
2023-11-30T15:39:16.194Z,53.80
2023-11-30T15:42:17.961Z,55.50
2023-11-30T15:45:23.604Z,42.30
2023-11-30T15:48:25.562Z,51.80
2023-11-30T15:51:27.318Z,51.40
2023-11-30T15:54:28.953Z,57.10
2023-11-30T15:57:30.702Z,58.50
2023-11-30T16:00:33.161Z,62.80
2023-11-30T16:03:35.004Z,62.10
2023-11-30T16:06:37.056Z,65.00
2023-11-30T16:12:40.626Z,61.40
2023-11-30T16:15:42.440Z,72.00
2023-11-30T16:18:44.397Z,77.00
2023-11-30T16:21:46.290Z,76.30
2023-11-30T16:24:48.179Z,72.90
2023-11-30T16:27:49.987Z,73.70
2023-11-30T16:30:51.720Z,86.60
2023-11-30T16:33:53.847Z,80.80
2023-11-30T16:39:58.170Z,79.20
2023-11-30T16:43:00.527Z,84.70
2023-11-30T16:46:03.172Z,76.50
2023-11-30T16:49:05.581Z,70.60
2023-11-30T16:52:08.570Z,63.80
2023-11-30T16:55:12.723Z,60.40
2023-11-30T16:58:14.556Z,59.90
2023-11-30T17:01:46.185Z,63.10
2023-11-30T17:04:48.027Z,63.00
2023-11-30T17:07:50.073Z,52.90
2023-11-30T17:10:53.039Z,59.50
2023-11-30T17:13:54.856Z,60.60
2023-11-30T17:16:56.807Z,54.70
2023-11-30T17:19:58.994Z,54.10
2023-11-30T17:23:00.790Z,55.10
2023-11-30T17:26:02.964Z,59.20
2023-11-30T17:32:07.351Z,48.90
2023-11-30T17:35:09.665Z,54.20
2023-11-30T17:41:13.356Z,62.80
2023-11-30T17:44:15.171Z,64.00
2023-11-30T17:47:17.012Z,67.00
2023-11-30T17:50:18.962Z,66.60
2023-11-30T17:53:20.877Z,67.60
2023-11-30T17:56:22.737Z,63.30
2023-11-30T17:59:27.254Z,65.80
2023-11-30T18:02:29.150Z,70.00
2023-11-30T18:05:30.980Z,79.70
2023-11-30T18:08:33.281Z,76.30
2023-11-30T18:11:35.614Z,85.40
2023-11-30T18:14:38.273Z,94.70
2023-11-30T18:17:40.260Z,94.00
2023-11-30T18:20:41.964Z,96.70
2023-11-30T18:23:44.414Z,90.80
2023-11-30T18:26:48.368Z,92.40
2023-11-30T18:29:50.238Z,99.10
2023-11-30T18:32:52.014Z,95.70
2023-11-30T18:35:53.661Z,93.30
2023-11-30T18:38:55.442Z,100.40
2023-11-30T18:41:57.249Z,83.40
2023-11-30T18:44:58.978Z,102.20
2023-11-30T18:48:00.822Z,108.40
2023-11-30T18:51:03.113Z,105.80
2023-11-30T18:57:07.076Z,91.70
2023-11-30T19:00:09.878Z,103.10
2023-11-30T19:03:11.740Z,101.60
2023-11-30T19:06:15.919Z,98.80
2023-11-30T19:09:18.223Z,111.20
2023-11-30T19:15:25.168Z,111.10
2023-11-30T19:18:30.549Z,119.70
2023-11-30T19:21:32.556Z,122.80
2023-11-30T19:24:34.517Z,116.00
2023-11-30T19:27:36.339Z,115.10
2023-11-30T19:30:38.169Z,113.00
2023-11-30T19:33:40.275Z,121.90
2023-11-30T19:36:42.437Z,113.40
2023-11-30T19:42:46.184Z,114.90
2023-11-30T19:45:47.994Z,128.70
2023-11-30T19:48:49.917Z,152.50
2023-11-30T19:51:52.501Z,188.10
2023-11-30T19:54:54.395Z,201.40
2023-11-30T19:57:56.176Z,195.80
2023-11-30T20:00:57.954Z,181.90
2023-11-30T20:03:59.964Z,185.40
2023-11-30T20:10:04.121Z,174.50
2023-11-30T20:13:05.824Z,175.70
2023-11-30T20:16:11.169Z,132.80
2023-11-30T20:19:12.927Z,191.50
2023-11-30T20:22:14.814Z,207.20
2023-11-30T20:25:17.381Z,223.50
2023-11-30T20:28:19.387Z,215.70
2023-11-30T20:31:21.163Z,233.70
2023-11-30T20:34:23.239Z,249.00
2023-11-30T20:37:25.432Z,247.40
2023-11-30T20:43:29.172Z,243.60
2023-11-30T20:49:32.517Z,176.30
2023-11-30T20:52:34.714Z,268.30
2023-11-30T20:55:36.750Z,266.70
2023-11-30T20:58:39.460Z,245.00
2023-11-30T21:01:41.633Z,252.90
2023-11-30T21:04:43.515Z,245.70
2023-11-30T21:07:45.604Z,249.10
2023-11-30T21:10:47.440Z,249.30
2023-11-30T21:13:49.152Z,272.10
2023-11-30T21:16:51.257Z,312.40
2023-11-30T21:22:57.460Z,289.10
2023-11-30T21:26:09.994Z,314.70
2023-11-30T21:29:12.553Z,337.80
2023-11-30T21:32:14.714Z,309.20
2023-11-30T21:38:18.570Z,301.30
2023-11-30T21:41:20.929Z,310.30
2023-11-30T21:44:22.776Z,325.70
2023-11-30T21:47:24.502Z,357.90
2023-11-30T21:50:27.159Z,330.10
2023-11-30T21:53:32.624Z,330.10
2023-11-30T21:56:34.425Z,332.10
2023-11-30T21:59:37.258Z,274.10
2023-11-30T22:02:40.621Z,344.80
2023-11-30T22:05:42.728Z,360.20
2023-11-30T22:08:45.912Z,356.10
2023-11-30T22:11:47.574Z,340.60
2023-11-30T22:14:49.275Z,264.20
2023-11-30T22:17:51.116Z,264.80
2023-11-30T22:20:53.137Z,354.10
2023-11-30T22:23:55.472Z,338.60
2023-11-30T22:26:57.223Z,343.60
2023-11-30T22:29:58.898Z,321.80
2023-11-30T22:33:00.653Z,335.70
2023-11-30T22:36:02.410Z,334.40
2023-11-30T22:39:04.159Z,340.00
2023-11-30T22:42:06.440Z,344.80
2023-11-30T22:48:10.054Z,343.90
2023-11-30T22:51:12.834Z,369.20
2023-11-30T22:54:14.802Z,376.30
2023-11-30T22:57:17.306Z,358.70
2023-11-30T23:00:24.162Z,371.30
2023-11-30T23:03:26.159Z,358.70
2023-11-30T23:06:28.146Z,337.10
2023-11-30T23:09:29.981Z,332.10
2023-11-30T23:12:31.856Z,320.90
2023-11-30T23:15:33.606Z,342.90
2023-11-30T23:18:35.582Z,345.70
2023-11-30T23:21:37.532Z,347.30
2023-11-30T23:24:42.211Z,319.10
2023-11-30T23:27:44.015Z,319.30
2023-11-30T23:30:45.745Z,218.60
2023-11-30T23:33:47.669Z,287.30
2023-11-30T23:36:49.390Z,276.70
2023-11-30T23:39:51.401Z,260.60
2023-11-30T23:42:53.487Z,265.40
2023-11-30T23:45:55.196Z,254.00
2023-11-30T23:48:57.755Z,256.90
2023-11-30T23:51:59.411Z,261.00
2023-11-30T23:55:01.756Z,208.00
2023-11-30T23:58:03.642Z,267.80
